createdAt,value
2018-09-26T00:01:07.081Z,91.23
2018-09-26T00:04:14.852Z,90.97
2018-09-26T00:07:18.030Z,91.20
2018-09-26T00:10:21.234Z,92.64
2018-09-26T00:13:24.493Z,92.11
2018-09-26T00:16:27.642Z,89.87
2018-09-26T00:19:30.803Z,89.69
2018-09-26T00:22:33.986Z,90.88
2018-09-26T00:25:37.181Z,90.57
2018-09-26T00:28:40.385Z,91.10
2018-09-26T00:31:43.596Z,93.37
2018-09-26T00:34:46.855Z,91.90
2018-09-26T00:37:51.524Z,91.48
2018-09-26T00:40:54.693Z,90.70
2018-09-26T00:43:57.888Z,91.60
2018-09-26T00:47:01.219Z,92.69
2018-09-26T00:50:04.379Z,93.20
2018-09-26T00:53:07.563Z,93.11
2018-09-26T00:56:10.752Z,92.65
2018-09-26T00:59:13.961Z,93.06
2018-09-26T01:02:17.141Z,95.66
2018-09-26T01:05:20.386Z,96.27
2018-09-26T01:08:23.512Z,96.30
2018-09-26T01:11:27.823Z,95.91
2018-09-26T01:14:32.082Z,95.67
2018-09-26T01:17:35.198Z,94.88
2018-09-26T01:20:40.706Z,94.78
2018-09-26T01:23:43.937Z,94.81
2018-09-26T01:26:47.084Z,95.41
2018-09-26T01:29:50.285Z,92.09
2018-09-26T01:32:53.559Z,91.95
2018-09-26T01:35:56.814Z,92.29
2018-09-26T01:39:00.051Z,93.83
2018-09-26T01:42:03.314Z,94.36
2018-09-26T01:45:06.601Z,94.29
2018-09-26T01:48:09.893Z,94.46
2018-09-26T01:51:13.125Z,93.62
2018-09-26T01:54:16.318Z,93.25
2018-09-26T01:57:19.582Z,94.02
2018-09-26T02:00:22.786Z,95.11
2018-09-26T02:03:26.062Z,94.76
2018-09-26T02:06:29.275Z,94.08
2018-09-26T02:09:32.588Z,94.20
2018-09-26T02:12:35.877Z,94.43
2018-09-26T02:15:39.179Z,93.25
2018-09-26T02:18:42.430Z,94.88
2018-09-26T02:21:45.633Z,94.93
2018-09-26T02:24:48.827Z,95.13
2018-09-26T02:27:52.204Z,96.37
2018-09-26T02:30:55.578Z,92.89
2018-09-26T02:33:58.862Z,93.29
2018-09-26T02:37:02.087Z,94.54
2018-09-26T02:40:05.381Z,93.70
2018-09-26T02:43:08.593Z,92.61
2018-09-26T02:46:11.781Z,92.52
2018-09-26T02:49:14.930Z,90.51
2018-09-26T02:52:18.211Z,93.42
2018-09-26T02:55:21.347Z,95.58
2018-09-26T02:58:24.526Z,90.97
2018-09-26T03:01:27.851Z,92.64
2018-09-26T03:04:31.143Z,94.29
2018-09-26T03:07:34.306Z,93.54
2018-09-26T03:10:37.545Z,91.95
2018-09-26T03:13:40.729Z,92.14
2018-09-26T03:16:43.893Z,90.00
2018-09-26T03:19:47.060Z,90.29
2018-09-26T03:22:50.307Z,94.40
2018-09-26T03:25:53.504Z,97.46
2018-09-26T03:28:56.783Z,98.43
2018-09-26T03:31:59.984Z,98.63
2018-09-26T03:35:03.297Z,98.46
2018-09-26T03:38:06.546Z,99.86
2018-09-26T03:41:09.697Z,99.84
2018-09-26T03:44:12.859Z,99.78
2018-09-26T03:47:16.054Z,99.16
2018-09-26T03:50:19.276Z,97.86
2018-09-26T03:53:22.462Z,96.27
2018-09-26T03:56:25.616Z,93.52
2018-09-26T03:59:28.761Z,93.34
2018-09-26T04:02:31.919Z,95.61
2018-09-26T04:05:35.227Z,95.78
2018-09-26T04:08:38.613Z,94.57
2018-09-26T04:11:42.173Z,96.51
2018-09-26T04:14:45.503Z,97.78
2018-09-26T04:17:48.728Z,98.02
2018-09-26T04:20:52.425Z,97.33
2018-09-26T04:23:55.625Z,97.19
2018-09-26T04:26:59.688Z,97.48
2018-09-26T04:30:02.789Z,96.40
2018-09-26T04:33:06.403Z,95.60
2018-09-26T04:36:09.593Z,95.73
2018-09-26T04:39:13.026Z,100.00
2018-09-26T04:42:16.275Z,99.84
2018-09-26T04:45:19.458Z,98.91
2018-09-26T04:48:22.757Z,98.79
2018-09-26T04:51:26.042Z,97.96
2018-09-26T04:54:29.195Z,98.03
2018-09-26T04:57:32.430Z,93.17
2018-09-26T05:00:35.686Z,93.93
2018-09-26T05:03:39.053Z,94.12
2018-09-26T05:06:42.523Z,94.16
2018-09-26T05:09:45.797Z,93.16
2018-09-26T05:12:49.029Z,95.10
2018-09-26T05:15:52.410Z,95.46
2018-09-26T05:18:55.699Z,94.87
2018-09-26T05:21:58.919Z,91.58
2018-09-26T05:25:02.192Z,93.91
2018-09-26T05:28:05.498Z,94.03
2018-09-26T05:31:08.933Z,98.31
2018-09-26T05:34:12.181Z,96.08
2018-09-26T05:37:15.766Z,95.79
2018-09-26T05:40:18.968Z,95.71
2018-09-26T05:43:22.268Z,94.86
2018-09-26T05:46:25.437Z,94.01
2018-09-26T05:49:28.623Z,93.15
2018-09-26T05:52:31.871Z,94.67
2018-09-26T05:55:35.136Z,89.45
2018-09-26T05:58:38.436Z,87.08
2018-09-26T06:01:41.850Z,91.68
2018-09-26T06:04:45.164Z,93.08
2018-09-26T06:07:48.457Z,93.70
2018-09-26T06:10:52.766Z,93.39
2018-09-26T06:13:56.114Z,92.49
2018-09-26T06:16:59.359Z,91.20
2018-09-26T06:20:02.653Z,93.78
2018-09-26T06:23:05.909Z,96.36
2018-09-26T06:26:09.044Z,100.00
2018-09-26T06:29:12.281Z,100.00
2018-09-26T06:32:15.467Z,100.00
2018-09-26T06:35:18.634Z,100.00
2018-09-26T06:38:21.843Z,100.00
2018-09-26T06:41:24.930Z,97.66
2018-09-26T06:44:28.218Z,98.14
2018-09-26T06:47:31.421Z,95.95
2018-09-26T06:50:34.497Z,94.49
2018-09-26T06:53:37.599Z,93.13
2018-09-26T06:56:40.763Z,91.20
2018-09-26T06:59:43.881Z,89.88
2018-09-26T07:02:47.046Z,86.51
2018-09-26T07:05:50.256Z,89.17
2018-09-26T07:08:53.391Z,88.64
2018-09-26T07:11:56.469Z,92.61
2018-09-26T07:14:59.745Z,93.97
2018-09-26T07:18:04.248Z,91.77
2018-09-26T07:21:07.474Z,91.18
2018-09-26T07:24:10.577Z,87.99
2018-09-26T07:27:13.810Z,89.85
2018-09-26T07:30:17.068Z,88.37
2018-09-26T07:33:20.235Z,85.98
2018-09-26T07:36:23.463Z,84.18
2018-09-26T07:39:26.717Z,83.53
2018-09-26T07:42:29.994Z,82.62
2018-09-26T07:45:34.564Z,79.68
2018-09-26T07:48:37.784Z,79.40
2018-09-26T07:51:41.201Z,78.07
2018-09-26T07:54:44.855Z,77.64
2018-09-26T07:57:48.464Z,79.33
2018-09-26T08:00:51.968Z,81.23
2018-09-26T08:03:55.404Z,83.42
2018-09-26T08:06:58.929Z,80.65
2018-09-26T08:10:02.357Z,84.31
2018-09-26T08:13:05.605Z,82.86
2018-09-26T08:16:09.536Z,82.76
2018-09-26T08:19:12.934Z,77.13
2018-09-26T08:22:16.501Z,76.93
2018-09-26T08:25:19.793Z,74.76
2018-09-26T08:28:23.128Z,75.44
2018-09-26T08:31:26.470Z,81.63
2018-09-26T08:34:29.734Z,82.91
2018-09-26T08:37:33.027Z,79.54
2018-09-26T08:40:36.290Z,78.10
2018-09-26T08:43:39.612Z,75.76
2018-09-26T08:46:42.754Z,73.32
2018-09-26T08:49:45.865Z,69.57
2018-09-26T08:52:49.063Z,70.02
2018-09-26T08:55:52.332Z,68.18
2018-09-26T08:58:55.513Z,71.38
2018-09-26T09:01:58.682Z,71.62
2018-09-26T09:05:01.911Z,74.40
2018-09-26T09:08:05.113Z,75.18
2018-09-26T09:11:08.303Z,77.92
2018-09-26T09:14:11.514Z,76.33
2018-09-26T09:17:14.667Z,78.83
2018-09-26T09:20:17.843Z,78.70
2018-09-26T09:23:20.977Z,75.37
2018-09-26T09:26:24.272Z,73.42
2018-09-26T09:29:27.437Z,75.37
2018-09-26T09:32:30.658Z,74.86
2018-09-26T09:35:33.830Z,72.02
2018-09-26T09:38:37.105Z,72.97
2018-09-26T09:41:40.317Z,71.17
2018-09-26T09:44:43.721Z,70.26
2018-09-26T09:47:46.977Z,70.71
2018-09-26T09:50:50.248Z,70.74
2018-09-26T09:53:53.476Z,70.00
2018-09-26T09:56:56.727Z,68.47
2018-09-26T09:59:59.949Z,66.77
2018-09-26T10:03:03.383Z,67.89
2018-09-26T10:06:06.642Z,67.07
2018-09-26T10:09:09.873Z,65.58
2018-09-26T10:12:13.139Z,63.60
2018-09-26T10:15:16.426Z,64.08
2018-09-26T10:18:19.590Z,65.27
2018-09-26T10:21:22.770Z,64.18
2018-09-26T10:24:26.066Z,63.82
2018-09-26T10:27:29.947Z,64.77
2018-09-26T10:30:33.344Z,61.87
2018-09-26T10:33:37.456Z,62.22
2018-09-26T10:36:41.217Z,58.33
2018-09-26T10:39:44.412Z,61.36
2018-09-26T10:42:47.687Z,60.36
2018-09-26T10:45:50.862Z,61.51
2018-09-26T10:48:54.090Z,60.49
2018-09-26T10:51:57.239Z,62.67
2018-09-26T10:55:00.486Z,63.54
2018-09-26T10:58:03.637Z,62.27
2018-09-26T11:01:07.226Z,63.90
2018-09-26T11:04:10.481Z,62.89
2018-09-26T11:07:13.583Z,63.19
2018-09-26T11:10:16.763Z,62.61
2018-09-26T11:13:19.953Z,63.18
2018-09-26T11:16:23.939Z,63.08
2018-09-26T11:19:27.126Z,64.23
2018-09-26T11:22:30.330Z,64.10
2018-09-26T11:25:33.473Z,63.30
2018-09-26T11:28:36.624Z,63.15
2018-09-26T11:31:39.748Z,61.33
2018-09-26T11:34:43.045Z,63.19
2018-09-26T11:37:46.397Z,62.40
2018-09-26T11:40:49.623Z,61.69
2018-09-26T11:43:53.105Z,58.85
2018-09-26T11:46:56.311Z,58.78
2018-09-26T11:49:59.541Z,59.51
2018-09-26T11:53:02.861Z,58.45
2018-09-26T11:56:06.296Z,58.05
2018-09-26T11:59:09.534Z,55.90
2018-09-26T12:02:12.907Z,55.54
2018-09-26T12:05:16.114Z,57.48
2018-09-26T12:08:19.609Z,58.25
2018-09-26T12:11:22.699Z,58.02
2018-09-26T12:14:26.122Z,58.67
2018-09-26T12:17:29.355Z,59.89
2018-09-26T12:20:32.578Z,59.29
2018-09-26T12:23:35.915Z,59.71
2018-09-26T12:26:39.212Z,61.58
2018-09-26T12:29:42.385Z,59.99
2018-09-26T12:32:45.639Z,58.55
2018-09-26T12:35:48.898Z,59.96
2018-09-26T12:38:52.160Z,58.01
2018-09-26T12:41:55.438Z,57.87
2018-09-26T12:44:58.727Z,56.20
2018-09-26T12:48:01.961Z,56.31
2018-09-26T12:51:05.141Z,53.70
2018-09-26T12:57:22.687Z,56.59
2018-09-26T13:00:26.484Z,57.98
2018-09-26T13:03:29.664Z,58.97
2018-09-26T13:06:33.042Z,58.86
2018-09-26T13:09:36.357Z,59.35
2018-09-26T13:12:39.585Z,57.97
2018-09-26T13:15:42.851Z,57.01
2018-09-26T13:18:46.127Z,55.66
2018-09-26T13:21:49.325Z,54.92
2018-09-26T13:24:52.600Z,53.40
2018-09-26T13:27:55.838Z,56.21
2018-09-26T13:30:59.071Z,59.54
2018-09-26T13:34:02.442Z,57.15
2018-09-26T13:37:05.678Z,58.16
2018-09-26T13:40:09.028Z,58.61
2018-09-26T13:43:12.335Z,57.01
2018-09-26T13:46:15.645Z,56.83
2018-09-26T13:49:18.812Z,57.40
2018-09-26T13:52:22.048Z,58.65
2018-09-26T13:55:25.401Z,56.11
2018-09-26T13:58:28.623Z,54.97
2018-09-26T14:01:32.086Z,52.88
2018-09-26T14:04:35.966Z,55.09
2018-09-26T14:07:39.163Z,53.21
2018-09-26T14:10:42.409Z,51.43
2018-09-26T14:13:45.614Z,52.47
2018-09-26T14:16:48.921Z,53.00
2018-09-26T14:20:15.286Z,54.14
2018-09-26T14:23:24.694Z,54.88
2018-09-26T14:26:28.175Z,53.40
2018-09-26T14:29:31.588Z,52.68
2018-09-26T14:32:35.005Z,49.96
2018-09-26T14:35:38.422Z,49.43
2018-09-26T14:38:41.894Z,47.80
2018-09-26T14:41:45.326Z,48.49
2018-09-26T14:44:48.762Z,48.56
2018-09-26T14:47:52.159Z,47.12
2018-09-26T14:50:55.555Z,45.31
2018-09-26T14:53:59.025Z,44.91
2018-09-26T14:57:02.390Z,44.31
2018-09-26T15:00:07.141Z,46.24
2018-09-26T15:03:10.583Z,45.11
2018-09-26T15:06:14.058Z,43.35
2018-09-26T15:09:17.574Z,43.86
2018-09-26T15:12:20.972Z,46.35
2018-09-26T15:15:24.365Z,45.44
2018-09-26T15:18:27.756Z,43.07
2018-09-26T15:21:31.019Z,45.72
2018-09-26T15:24:34.387Z,44.97
2018-09-26T15:27:37.821Z,44.34
2018-09-26T15:30:41.178Z,45.66
2018-09-26T15:33:44.693Z,49.44
2018-09-26T15:36:48.055Z,48.91
2018-09-26T15:39:51.461Z,46.10
2018-09-26T15:42:54.885Z,44.49
2018-09-26T15:45:58.209Z,45.78
2018-09-26T15:49:01.550Z,46.08
2018-09-26T15:52:05.036Z,47.11
2018-09-26T15:55:08.598Z,48.13
2018-09-26T15:58:11.953Z,46.77
2018-09-26T16:01:15.290Z,49.03
2018-09-26T16:04:25.689Z,50.79
2018-09-26T16:07:28.874Z,50.60
2018-09-26T16:10:32.108Z,50.91
2018-09-26T16:13:35.446Z,51.77
2018-09-26T16:16:38.773Z,52.33
2018-09-26T16:19:42.115Z,52.00
2018-09-26T16:22:45.396Z,50.29
2018-09-26T16:25:48.596Z,49.06
2018-09-26T16:28:51.735Z,48.82
2018-09-26T16:31:54.896Z,48.04
2018-09-26T16:34:58.078Z,48.54
2018-09-26T16:38:01.281Z,48.81
2018-09-26T16:41:04.803Z,47.52
2018-09-26T16:44:07.994Z,45.47
2018-09-26T16:47:11.207Z,48.00
2018-09-26T16:50:14.593Z,50.20
2018-09-26T16:53:17.972Z,51.79
2018-09-26T16:56:21.287Z,53.29
2018-09-26T16:59:24.381Z,54.54
2018-09-26T17:02:28.062Z,57.19
2018-09-26T17:05:31.437Z,56.73
2018-09-26T17:08:34.573Z,60.42
2018-09-26T17:11:37.883Z,62.12
2018-09-26T17:14:42.294Z,64.02
2018-09-26T17:17:45.614Z,66.45
2018-09-26T17:20:49.004Z,66.91
2018-09-26T17:23:52.367Z,68.04
2018-09-26T17:26:55.671Z,69.24
2018-09-26T17:29:59.015Z,70.00
2018-09-26T17:33:02.329Z,71.24
2018-09-26T17:36:05.883Z,72.23
2018-09-26T17:39:09.583Z,72.04
2018-09-26T17:42:13.060Z,72.67
2018-09-26T17:45:16.308Z,73.76
2018-09-26T17:48:19.652Z,74.55
2018-09-26T17:51:23.036Z,74.09
2018-09-26T17:54:26.258Z,73.70
2018-09-26T17:57:29.611Z,72.92
2018-09-26T18:00:32.870Z,73.73
2018-09-26T18:03:36.420Z,75.97
2018-09-26T18:06:39.797Z,75.41
2018-09-26T18:09:42.982Z,76.76
2018-09-26T18:12:46.360Z,77.51
2018-09-26T18:15:49.558Z,75.87
2018-09-26T18:18:52.841Z,80.08
2018-09-26T18:21:56.103Z,78.71
2018-09-26T18:24:59.445Z,78.19
2018-09-26T18:28:02.850Z,77.44
2018-09-26T18:31:06.209Z,79.82
2018-09-26T18:34:09.550Z,80.43
2018-09-26T18:37:12.844Z,80.38
2018-09-26T18:40:16.079Z,81.31
2018-09-26T18:43:19.451Z,78.96
2018-09-26T18:46:22.871Z,79.72
2018-09-26T18:49:26.198Z,78.13
2018-09-26T18:52:29.611Z,78.18
2018-09-26T18:55:32.931Z,79.63
2018-09-26T18:58:36.249Z,77.91
2018-09-26T19:01:39.459Z,80.06
2018-09-26T19:04:43.049Z,79.81
2018-09-26T19:07:46.934Z,80.83
2018-09-26T19:10:50.275Z,78.89
2018-09-26T19:13:53.701Z,78.87
2018-09-26T19:16:57.065Z,79.16
2018-09-26T19:20:00.538Z,79.89
2018-09-26T19:23:04.076Z,81.39
2018-09-26T19:26:07.334Z,81.49
2018-09-26T19:29:10.649Z,81.93
2018-09-26T19:32:14.008Z,80.58
2018-09-26T19:35:17.311Z,80.46
2018-09-26T19:38:20.580Z,81.02
2018-09-26T19:41:24.000Z,79.67
2018-09-26T19:44:27.341Z,80.29
2018-09-26T19:47:30.632Z,81.75
2018-09-26T19:50:33.921Z,83.05
2018-09-26T19:53:37.755Z,82.66
2018-09-26T19:56:41.173Z,84.66
2018-09-26T19:59:44.456Z,86.03
2018-09-26T20:02:47.844Z,86.53
2018-09-26T20:05:51.213Z,87.44
2018-09-26T20:08:54.557Z,87.74
2018-09-26T20:11:57.891Z,87.29
2018-09-26T20:15:01.243Z,86.58
2018-09-26T20:18:04.630Z,87.33
2018-09-26T20:21:07.996Z,87.70
2018-09-26T20:24:11.489Z,87.80
2018-09-26T20:27:14.957Z,89.44
2018-09-26T20:30:18.393Z,87.74
2018-09-26T20:33:21.949Z,88.56
2018-09-26T20:36:25.393Z,90.61
2018-09-26T20:39:28.895Z,90.90
2018-09-26T20:42:32.218Z,89.91
2018-09-26T20:45:35.441Z,90.32
2018-09-26T20:48:38.730Z,90.03
2018-09-26T20:51:41.973Z,91.20
2018-09-26T20:54:45.288Z,92.72
2018-09-26T20:57:48.468Z,91.25
2018-09-26T21:00:51.650Z,91.55
2018-09-26T21:03:54.905Z,90.45
2018-09-26T21:06:58.145Z,90.80
2018-09-26T21:10:01.377Z,90.31
2018-09-26T21:13:04.684Z,91.45
2018-09-26T21:16:07.987Z,90.71
2018-09-26T21:19:11.571Z,90.66
2018-09-26T21:22:14.813Z,91.68
2018-09-26T21:25:18.050Z,91.30
2018-09-26T21:28:21.379Z,90.41
2018-09-26T21:31:24.643Z,88.77
2018-09-26T21:34:27.962Z,89.22
2018-09-26T21:37:31.222Z,91.83
2018-09-26T21:40:34.419Z,88.75
2018-09-26T21:43:37.651Z,89.19
2018-09-26T21:46:41.066Z,90.43
2018-09-26T21:49:44.291Z,92.11
2018-09-26T21:52:47.488Z,92.03
2018-09-26T21:55:50.775Z,91.15
2018-09-26T21:58:53.995Z,90.61
2018-09-26T22:01:57.160Z,91.45
2018-09-26T22:05:00.361Z,88.78
2018-09-26T22:08:03.621Z,93.20
2018-09-26T22:11:06.855Z,89.48
2018-09-26T22:14:10.121Z,89.93
2018-09-26T22:17:13.333Z,92.78
2018-09-26T22:20:16.610Z,91.33
2018-09-26T22:23:19.867Z,91.98
2018-09-26T22:26:23.187Z,92.05
2018-09-26T22:29:26.339Z,92.24
2018-09-26T22:32:29.499Z,93.41
2018-09-26T22:35:32.657Z,94.45
2018-09-26T22:38:35.884Z,95.45
2018-09-26T22:41:39.212Z,94.41
2018-09-26T22:44:42.323Z,94.35
2018-09-26T22:47:45.509Z,92.80
2018-09-26T22:50:48.650Z,92.57
2018-09-26T22:53:51.809Z,92.99
2018-09-26T22:56:55.013Z,92.46
2018-09-26T22:59:58.229Z,92.98
2018-09-26T23:03:01.370Z,92.91
2018-09-26T23:06:04.642Z,92.39
2018-09-26T23:09:09.942Z,92.21
2018-09-26T23:12:13.180Z,92.04
2018-09-26T23:15:16.368Z,93.13
2018-09-26T23:18:19.702Z,91.56
2018-09-26T23:21:22.964Z,90.15
2018-09-26T23:24:26.146Z,93.64
2018-09-26T23:27:29.444Z,91.41
2018-09-26T23:30:32.574Z,92.99
2018-09-26T23:33:35.761Z,91.31
2018-09-26T23:36:38.905Z,88.93
2018-09-26T23:39:42.091Z,92.96
2018-09-26T23:42:45.298Z,92.89
2018-09-26T23:45:48.513Z,94.04
2018-09-26T23:48:51.722Z,93.69
2018-09-26T23:51:54.881Z,96.15
2018-09-26T23:54:58.087Z,96.33
2018-09-26T23:58:01.266Z,92.76
